createdAt,value
2018-08-06T00:02:17.432Z,1.90
2018-08-06T00:04:45.629Z,1.80
2018-08-06T00:07:14.006Z,1.80
2018-08-06T00:09:42.229Z,1.90
2018-08-06T00:12:10.429Z,2.00
2018-08-06T00:14:38.881Z,1.80
2018-08-06T00:17:07.296Z,1.93
2018-08-06T00:19:35.541Z,1.73
2018-08-06T00:22:03.741Z,1.70
2018-08-06T00:24:31.936Z,2.10
2018-08-06T00:27:00.396Z,1.90
2018-08-06T00:29:28.681Z,1.90
2018-08-06T00:31:56.805Z,1.77
2018-08-06T00:34:25.070Z,1.80
2018-08-06T00:36:53.220Z,2.10
2018-08-06T00:39:21.417Z,1.80
2018-08-06T00:41:49.648Z,2.03
2018-08-06T00:44:17.834Z,1.83
2018-08-06T00:46:46.062Z,2.03
2018-08-06T00:49:14.288Z,1.80
2018-08-06T00:51:42.492Z,1.97
2018-08-06T00:54:10.706Z,1.90
2018-08-06T00:56:38.909Z,1.90
2018-08-06T00:59:07.104Z,1.97
2018-08-06T01:01:35.343Z,1.93
2018-08-06T01:04:03.585Z,2.23
2018-08-06T01:06:31.788Z,1.90
2018-08-06T01:08:59.985Z,2.17
2018-08-06T01:11:28.233Z,1.90
2018-08-06T01:13:56.497Z,1.80
2018-08-06T01:16:24.705Z,1.80
2018-08-06T01:18:52.981Z,1.83
2018-08-06T01:21:21.168Z,1.73
2018-08-06T01:23:49.414Z,1.90
2018-08-06T01:26:17.641Z,1.77
2018-08-06T01:28:45.869Z,2.03
2018-08-06T01:31:14.066Z,1.70
2018-08-06T01:33:42.258Z,1.90
2018-08-06T01:36:10.487Z,1.97
2018-08-06T01:38:38.690Z,1.93
2018-08-06T01:41:07.176Z,1.80
2018-08-06T01:43:35.376Z,1.83
2018-08-06T01:46:03.605Z,1.83
2018-08-06T01:48:31.808Z,1.80
2018-08-06T01:51:00.049Z,1.83
2018-08-06T01:53:28.311Z,2.10
2018-08-06T01:55:57.013Z,2.27
2018-08-06T01:58:25.225Z,1.70
2018-08-06T02:00:53.813Z,1.80
2018-08-06T02:03:22.054Z,1.90
2018-08-06T02:05:50.292Z,1.73
2018-08-06T02:08:18.492Z,2.00
2018-08-06T02:10:46.713Z,1.60
2018-08-06T02:13:14.884Z,1.87
2018-08-06T02:15:43.073Z,2.00
2018-08-06T02:18:11.313Z,2.17
2018-08-06T02:20:39.571Z,2.03
2018-08-06T02:23:07.771Z,2.20
2018-08-06T02:25:35.994Z,1.90
2018-08-06T02:28:04.369Z,2.20
2018-08-06T02:30:32.566Z,1.83
2018-08-06T02:33:00.773Z,2.17
2018-08-06T02:35:29.006Z,2.20
2018-08-06T02:37:57.180Z,2.23
2018-08-06T02:40:25.386Z,2.33
2018-08-06T02:42:53.641Z,1.90
2018-08-06T02:45:21.830Z,2.37
2018-08-06T02:47:50.090Z,2.10
2018-08-06T02:50:18.319Z,1.83
2018-08-06T02:52:46.547Z,2.37
2018-08-06T02:55:15.811Z,2.30
2018-08-06T02:57:44.424Z,2.00
2018-08-06T03:00:14.464Z,2.10
2018-08-06T03:02:43.917Z,2.07
2018-08-06T03:05:13.804Z,2.30
2018-08-06T03:07:43.115Z,2.50
2018-08-06T03:10:11.523Z,2.50
2018-08-06T03:12:39.707Z,2.40
2018-08-06T03:15:09.060Z,2.53
2018-08-06T03:17:37.615Z,2.50
2018-08-06T03:20:07.028Z,2.80
2018-08-06T03:22:35.685Z,2.17
2018-08-06T03:25:04.528Z,2.50
2018-08-06T03:27:32.745Z,2.53
2018-08-06T03:30:00.940Z,2.70
2018-08-06T03:32:29.200Z,2.50
2018-08-06T03:34:57.473Z,2.53
2018-08-06T03:37:25.711Z,2.83
2018-08-06T03:39:54.008Z,2.67
2018-08-06T03:42:22.488Z,2.60
2018-08-06T03:44:50.686Z,2.90
2018-08-06T03:47:18.892Z,2.77
2018-08-06T03:49:47.136Z,2.27
2018-08-06T03:52:15.405Z,3.17
2018-08-06T03:54:43.601Z,2.80
2018-08-06T03:57:11.849Z,3.10
2018-08-06T03:59:40.049Z,2.93
2018-08-06T04:02:08.341Z,2.60
2018-08-06T04:04:36.584Z,2.70
2018-08-06T04:07:04.853Z,2.60
2018-08-06T04:09:33.253Z,2.60
2018-08-06T04:12:01.439Z,2.77
2018-08-06T04:14:29.633Z,2.53
2018-08-06T04:16:57.826Z,2.93
2018-08-06T04:19:26.046Z,2.77
2018-08-06T04:21:54.299Z,2.77
2018-08-06T04:24:22.498Z,2.53
2018-08-06T04:26:50.692Z,3.00
2018-08-06T04:29:18.917Z,3.03
2018-08-06T04:31:47.218Z,2.87
2018-08-06T04:34:15.400Z,2.87
2018-08-06T04:36:43.599Z,3.00
2018-08-06T04:39:11.850Z,2.67
2018-08-06T04:41:40.037Z,2.93
2018-08-06T04:44:08.267Z,2.60
2018-08-06T04:46:36.488Z,2.90
2018-08-06T04:49:05.296Z,2.83
2018-08-06T04:51:33.480Z,2.90
2018-08-06T04:54:01.708Z,3.00
2018-08-06T04:56:29.921Z,2.80
2018-08-06T04:58:58.152Z,2.70
2018-08-06T05:01:26.344Z,3.20
2018-08-06T05:03:54.572Z,2.83
2018-08-06T05:06:22.809Z,2.83
2018-08-06T05:08:50.992Z,3.07
2018-08-06T05:11:19.230Z,2.87
2018-08-06T05:13:47.512Z,3.00
2018-08-06T05:16:15.760Z,3.30
2018-08-06T05:18:43.956Z,3.37
2018-08-06T05:21:12.364Z,2.90
2018-08-06T05:23:56.915Z,3.10
2018-08-06T05:26:26.047Z,2.70
2018-08-06T05:28:54.428Z,2.67
2018-08-06T05:31:24.109Z,2.90
2018-08-06T05:33:52.854Z,4.30
2018-08-06T05:36:22.407Z,4.30
2018-08-06T05:38:51.598Z,2.83
2018-08-06T05:41:20.331Z,3.13
2018-08-06T05:43:48.530Z,2.70
2018-08-06T05:46:16.764Z,3.40
2018-08-06T05:48:45.356Z,3.10
2018-08-06T05:51:13.581Z,2.93
2018-08-06T05:53:42.447Z,3.10
2018-08-06T05:56:11.323Z,3.13
2018-08-06T05:58:40.560Z,3.03
2018-08-06T06:01:08.796Z,3.10
2018-08-06T06:03:37.017Z,2.87
2018-08-06T06:06:06.838Z,3.40
2018-08-06T06:08:35.224Z,3.37
2018-08-06T06:11:03.516Z,3.27
2018-08-06T06:13:31.772Z,3.13
2018-08-06T06:15:59.995Z,3.20
2018-08-06T06:18:28.212Z,3.10
2018-08-06T06:20:56.455Z,3.10
2018-08-06T06:23:24.656Z,3.33
2018-08-06T06:25:52.961Z,3.20
2018-08-06T06:28:21.230Z,3.33
2018-08-06T06:30:49.460Z,2.87
2018-08-06T06:33:17.742Z,3.20
2018-08-06T06:35:45.964Z,3.00
2018-08-06T06:38:14.403Z,3.57
2018-08-06T06:40:42.644Z,3.27
2018-08-06T06:43:11.121Z,3.20
2018-08-06T06:45:39.352Z,3.30
2018-08-06T06:48:07.582Z,3.20
2018-08-06T06:50:35.783Z,2.93
2018-08-06T06:53:04.245Z,3.10
2018-08-06T06:55:32.225Z,2.93
2018-08-06T06:58:00.584Z,3.20
2018-08-06T07:00:28.809Z,2.73
2018-08-06T07:02:56.752Z,2.80
2018-08-06T07:05:24.967Z,2.87
2018-08-06T07:07:53.160Z,2.80
2018-08-06T07:10:21.401Z,2.57
2018-08-06T07:12:49.640Z,2.60
2018-08-06T07:15:17.994Z,2.47
2018-08-06T07:17:47.856Z,2.40
2018-08-06T07:20:17.794Z,2.40
2018-08-06T07:22:45.907Z,2.37
2018-08-06T07:25:14.123Z,2.30
2018-08-06T07:27:43.015Z,2.43
2018-08-06T07:30:12.761Z,2.00
2018-08-06T07:32:41.861Z,2.57
2018-08-06T07:35:11.089Z,2.00
2018-08-06T07:37:39.507Z,2.00
2018-08-06T07:40:09.709Z,2.30
2018-08-06T07:42:38.015Z,1.93
2018-08-06T07:45:07.140Z,2.33
2018-08-06T07:47:35.080Z,2.00
2018-08-06T07:50:03.637Z,2.00
2018-08-06T07:52:31.861Z,2.40
2018-08-06T07:55:00.075Z,2.30
2018-08-06T07:57:28.298Z,2.00
2018-08-06T07:59:56.479Z,1.85
2018-08-06T08:02:24.716Z,1.87
2018-08-06T08:04:52.941Z,1.65
2018-08-06T08:07:21.177Z,1.90
2018-08-06T08:09:49.410Z,1.75
2018-08-06T08:12:17.657Z,1.80
2018-08-06T08:14:45.845Z,1.65
2018-08-06T08:17:16.140Z,1.80
2018-08-06T08:19:44.396Z,1.67
2018-08-06T08:22:12.556Z,1.80
2018-08-06T08:24:40.773Z,1.80
2018-08-06T08:27:08.992Z,2.22
2018-08-06T08:29:37.186Z,2.05
2018-08-06T08:32:05.422Z,1.70
2018-08-06T08:34:33.644Z,1.72
2018-08-06T08:37:02.027Z,1.60
2018-08-06T08:39:30.305Z,1.50
2018-08-06T08:41:58.476Z,1.75
2018-08-06T08:44:26.683Z,1.45
2018-08-06T08:46:54.856Z,1.67
2018-08-06T08:49:23.061Z,1.80
2018-08-06T08:51:51.308Z,1.30
2018-08-06T08:54:19.747Z,1.52
2018-08-06T08:56:47.995Z,1.95
2018-08-06T08:59:16.282Z,1.70
2018-08-06T09:01:44.530Z,1.40
2018-08-06T09:04:12.716Z,1.72
2018-08-06T09:06:40.912Z,1.60
2018-08-06T09:09:10.954Z,1.40
2018-08-06T09:11:39.193Z,1.40
2018-08-06T09:14:07.432Z,1.77
2018-08-06T09:16:36.384Z,1.50
2018-08-06T09:19:04.605Z,1.60
2018-08-06T09:21:32.858Z,1.60
2018-08-06T09:24:01.091Z,1.42
2018-08-06T09:26:29.270Z,1.70
2018-08-06T09:28:57.504Z,1.60
2018-08-06T09:31:25.741Z,1.87
2018-08-06T09:33:54.020Z,1.60
2018-08-06T09:36:22.280Z,1.52
2018-08-06T09:38:50.568Z,1.70
2018-08-06T09:41:18.773Z,1.35
2018-08-06T09:43:47.009Z,1.55
2018-08-06T09:46:15.240Z,1.40
2018-08-06T09:48:43.551Z,1.57
2018-08-06T09:51:11.676Z,1.40
2018-08-06T09:53:39.904Z,1.57
2018-08-06T09:56:08.111Z,1.60
2018-08-06T09:58:36.914Z,1.17
2018-08-06T10:02:11.385Z,1.50
2018-08-06T10:04:39.649Z,1.60
2018-08-06T10:07:07.868Z,1.35
2018-08-06T10:09:36.113Z,1.20
2018-08-06T10:12:05.413Z,1.50
2018-08-06T10:14:33.558Z,1.30
2018-08-06T10:17:01.792Z,1.57
2018-08-06T10:19:30.038Z,1.50
2018-08-06T10:21:58.264Z,1.55
2018-08-06T10:24:26.546Z,1.37
2018-08-06T10:26:54.756Z,1.40
2018-08-06T10:29:22.939Z,1.27
2018-08-06T10:31:51.186Z,1.50
2018-08-06T10:34:19.401Z,1.75
2018-08-06T10:36:47.577Z,1.65
2018-08-06T10:39:15.859Z,1.35
2018-08-06T10:41:44.070Z,1.60
2018-08-06T10:44:12.280Z,1.30
2018-08-06T10:46:40.507Z,1.55
2018-08-06T10:49:08.767Z,1.20
2018-08-06T10:51:37.054Z,1.60
2018-08-06T10:54:05.291Z,1.50
2018-08-06T10:56:33.502Z,1.40
2018-08-06T10:59:01.756Z,1.50
2018-08-06T11:01:30.476Z,1.35
2018-08-06T11:03:58.724Z,1.45
2018-08-06T11:06:33.435Z,1.85
2018-08-06T11:09:01.615Z,1.67
2018-08-06T11:11:31.923Z,1.37
2018-08-06T11:14:00.160Z,1.60
2018-08-06T11:16:28.508Z,1.27
2018-08-06T11:18:57.241Z,1.50
2018-08-06T11:21:25.473Z,1.50
2018-08-06T11:23:53.742Z,1.67
2018-08-06T11:26:22.005Z,1.57
2018-08-06T11:28:50.284Z,1.55
2018-08-06T11:31:18.493Z,1.40
2018-08-06T11:33:46.776Z,1.62
2018-08-06T11:36:15.009Z,1.57
2018-08-06T11:38:43.306Z,1.42
2018-08-06T11:41:11.505Z,1.50
2018-08-06T11:43:39.717Z,1.45
2018-08-06T11:46:07.950Z,1.47
2018-08-06T11:48:36.216Z,1.60
2018-08-06T11:51:04.502Z,1.37
2018-08-06T11:53:32.733Z,1.50
2018-08-06T11:56:00.948Z,1.65
2018-08-06T11:58:29.183Z,1.45
2018-08-06T12:00:57.388Z,1.85
2018-08-06T12:03:25.604Z,1.60
2018-08-06T12:05:53.851Z,1.62
2018-08-06T12:08:22.113Z,1.60
2018-08-06T12:10:50.356Z,1.32
2018-08-06T12:13:18.568Z,1.70
2018-08-06T12:15:46.966Z,1.45
2018-08-06T12:18:15.204Z,1.60
2018-08-06T12:20:43.467Z,1.60
2018-08-06T12:23:11.657Z,1.45
2018-08-06T12:25:39.892Z,1.72
2018-08-06T12:28:08.172Z,1.60
2018-08-06T12:30:36.398Z,1.82
2018-08-06T12:33:04.718Z,1.55
2018-08-06T12:35:32.938Z,1.40
2018-08-06T12:38:01.185Z,1.70
2018-08-06T12:40:29.492Z,1.40
2018-08-06T12:42:57.456Z,1.50
2018-08-06T12:45:25.698Z,1.82
2018-08-06T12:47:53.898Z,1.80
2018-08-06T12:50:22.131Z,1.40
2018-08-06T12:52:50.675Z,1.60
2018-08-06T12:55:19.392Z,1.72
2018-08-06T12:57:47.691Z,1.77
2018-08-06T13:00:23.906Z,1.60
2018-08-06T13:02:52.604Z,1.50
2018-08-06T13:05:21.372Z,1.65
2018-08-06T13:07:49.720Z,1.50
2018-08-06T13:10:17.979Z,1.70
2018-08-06T13:12:46.188Z,1.55
2018-08-06T13:15:15.252Z,1.67
2018-08-06T13:17:43.493Z,1.70
2018-08-06T13:20:11.782Z,1.85
2018-08-06T13:22:40.027Z,1.30
2018-08-06T13:25:10.046Z,1.87
2018-08-06T13:27:38.236Z,1.67
2018-08-06T13:30:10.344Z,1.57
2018-08-06T13:32:38.571Z,1.80
2018-08-06T13:35:06.790Z,1.95
2018-08-06T13:37:35.158Z,1.60
2018-08-06T13:40:03.409Z,1.60
2018-08-06T13:42:31.652Z,1.57
2018-08-06T13:44:59.920Z,1.70
2018-08-06T13:47:28.135Z,1.32
2018-08-06T13:49:56.337Z,1.67
2018-08-06T13:52:24.591Z,1.50
2018-08-06T13:54:52.817Z,1.37
2018-08-06T13:57:21.023Z,1.55
2018-08-06T13:59:49.284Z,1.50
2018-08-06T14:02:17.868Z,1.40
2018-08-06T14:04:46.133Z,1.60
2018-08-06T14:07:14.374Z,1.80
2018-08-06T14:09:42.600Z,1.60
2018-08-06T14:12:10.790Z,1.52
2018-08-06T14:14:38.997Z,1.50
2018-08-06T14:17:07.219Z,1.67
2018-08-06T14:19:35.416Z,1.40
2018-08-06T14:22:03.760Z,1.50
2018-08-06T14:24:31.959Z,1.62
2018-08-06T14:27:00.154Z,1.30
2018-08-06T14:29:28.372Z,1.57
2018-08-06T14:31:56.558Z,1.70
2018-08-06T14:34:24.854Z,1.80
2018-08-06T14:36:53.131Z,1.35
2018-08-06T14:39:21.084Z,1.77
2018-08-06T14:41:49.258Z,1.70
2018-08-06T14:44:17.237Z,1.50
2018-08-06T14:46:45.429Z,1.45
2018-08-06T14:49:13.687Z,2.00
2018-08-06T14:51:41.898Z,1.45
2018-08-06T14:54:10.066Z,1.25
2018-08-06T14:56:38.393Z,1.55
2018-08-06T14:59:06.669Z,1.40
2018-08-06T15:01:34.872Z,1.50
2018-08-06T15:04:03.094Z,1.47
2018-08-06T15:06:31.317Z,1.60
2018-08-06T15:08:59.549Z,1.60
2018-08-06T15:11:27.742Z,1.40
2018-08-06T15:13:55.932Z,1.50
2018-08-06T15:16:24.154Z,1.50
2018-08-06T15:18:52.460Z,1.70
2018-08-06T15:21:20.648Z,1.37
2018-08-06T15:23:48.851Z,1.45
2018-08-06T15:26:17.054Z,1.62
2018-08-06T15:28:45.259Z,1.35
2018-08-06T15:31:13.760Z,1.22
2018-08-06T15:33:41.969Z,1.52
2018-08-06T15:36:10.175Z,1.47
2018-08-06T15:38:38.369Z,1.60
2018-08-06T15:41:07.311Z,1.60
2018-08-06T15:43:35.608Z,1.40
2018-08-06T15:46:03.720Z,1.70
2018-08-06T15:48:31.933Z,1.30
2018-08-06T15:51:00.154Z,1.42
2018-08-06T15:53:28.352Z,1.70
2018-08-06T15:55:56.652Z,1.40
2018-08-06T15:58:24.860Z,1.47
2018-08-06T16:00:53.136Z,1.75
2018-08-06T16:03:21.414Z,1.52
2018-08-06T16:05:49.546Z,1.55
2018-08-06T16:08:17.777Z,1.65
2018-08-06T16:10:45.968Z,1.70
2018-08-06T16:13:14.173Z,1.62
2018-08-06T16:15:42.377Z,1.67
2018-08-06T16:18:10.640Z,1.55
2018-08-06T16:20:38.833Z,1.70
2018-08-06T16:23:07.464Z,1.62
2018-08-06T16:25:35.697Z,1.40
2018-08-06T16:28:03.941Z,1.75
2018-08-06T16:30:31.899Z,1.40
2018-08-06T16:33:00.145Z,1.60
2018-08-06T16:35:28.394Z,1.65
2018-08-06T16:37:57.087Z,1.57
2018-08-06T16:40:25.289Z,1.70
2018-08-06T16:42:53.561Z,1.70
2018-08-06T16:45:21.778Z,1.65
2018-08-06T16:47:50.076Z,1.95
2018-08-06T16:50:18.771Z,1.70
2018-08-06T16:52:47.192Z,1.52
2018-08-06T16:55:15.578Z,1.55
2018-08-06T16:57:43.796Z,1.72
2018-08-06T17:00:16.606Z,1.57
2018-08-06T17:02:44.904Z,1.40
2018-08-06T17:05:13.762Z,1.65
2018-08-06T17:07:43.074Z,1.40
2018-08-06T17:10:13.635Z,1.50
2018-08-06T17:12:42.978Z,1.42
2018-08-06T17:15:12.528Z,1.67
2018-08-06T17:17:41.002Z,1.40
2018-08-06T17:20:12.382Z,1.65
2018-08-06T17:22:40.637Z,1.80
2018-08-06T17:25:10.037Z,1.45
2018-08-06T17:27:38.644Z,1.55
2018-08-06T17:30:07.172Z,1.77
2018-08-06T17:32:36.234Z,1.57
2018-08-06T17:35:04.583Z,1.47
2018-08-06T17:37:32.806Z,1.77
2018-08-06T17:40:01.760Z,1.60
2018-08-06T17:42:30.423Z,1.70
2018-08-06T17:45:02.160Z,1.57
2018-08-06T17:47:30.385Z,1.67
2018-08-06T17:49:59.605Z,1.35
2018-08-06T17:55:02.272Z,1.80
2018-08-06T17:57:30.487Z,1.47
2018-08-06T17:59:58.513Z,1.77
2018-08-06T18:02:26.728Z,1.72
2018-08-06T18:04:55.060Z,1.80
2018-08-06T18:07:23.269Z,1.70
2018-08-06T18:09:51.483Z,1.80
2018-08-06T18:12:19.703Z,1.70
2018-08-06T18:14:47.908Z,2.37
2018-08-06T18:17:16.078Z,2.65
2018-08-06T18:19:44.361Z,2.08
2018-08-06T18:22:12.561Z,5.75
2018-08-06T18:24:40.749Z,2.35
2018-08-06T18:27:09.024Z,2.10
2018-08-06T18:29:37.238Z,2.47
2018-08-06T18:32:05.485Z,2.02
2018-08-06T18:34:33.681Z,1.90
2018-08-06T18:37:01.926Z,1.75
2018-08-06T18:39:30.284Z,1.95
2018-08-06T18:42:04.827Z,2.20
2018-08-06T18:44:33.041Z,2.40
2018-08-06T18:47:01.254Z,3.10
2018-08-06T18:49:29.490Z,7.80
2018-08-06T18:51:57.723Z,3.33
2018-08-06T18:54:25.894Z,2.60
2018-08-06T18:56:54.090Z,2.37
2018-08-06T18:59:22.339Z,2.37
2018-08-06T19:01:50.553Z,2.35
2018-08-06T19:04:18.776Z,3.00
2018-08-06T19:06:46.962Z,2.72
2018-08-06T19:09:18.248Z,2.87
2018-08-06T19:11:47.017Z,2.72
2018-08-06T19:14:19.864Z,2.83
2018-08-06T19:16:49.327Z,2.80
2018-08-06T19:19:23.013Z,4.20
2018-08-06T19:21:52.416Z,4.33
2018-08-06T19:24:26.066Z,3.70
2018-08-06T19:26:54.328Z,3.08
2018-08-06T19:29:22.890Z,3.20
2018-08-06T19:31:51.148Z,3.20
2018-08-06T19:34:19.436Z,2.90
2018-08-06T19:36:53.095Z,3.27
2018-08-06T19:39:21.361Z,3.37
2018-08-06T19:41:49.785Z,3.00
2018-08-06T19:44:17.980Z,3.00
2018-08-06T19:46:47.054Z,3.58
2018-08-06T19:49:20.659Z,3.50
2018-08-06T19:51:48.882Z,3.00
2018-08-06T19:54:17.286Z,3.50
2018-08-06T19:56:46.527Z,2.97
2018-08-06T19:59:14.882Z,3.27
2018-08-06T20:01:43.062Z,3.10
2018-08-06T20:04:11.487Z,2.93
2018-08-06T20:06:39.775Z,2.90
2018-08-06T20:09:10.469Z,2.70
2018-08-06T20:11:39.050Z,2.97
2018-08-06T20:14:07.840Z,2.60
2018-08-06T20:16:36.276Z,2.93
2018-08-06T20:19:04.541Z,2.90
2018-08-06T20:21:32.912Z,3.30
2018-08-06T20:24:01.377Z,3.27
2018-08-06T20:26:29.600Z,3.00
2018-08-06T20:28:57.865Z,3.00
2018-08-06T20:31:26.791Z,3.17
2018-08-06T20:33:54.997Z,3.13
2018-08-06T20:36:23.353Z,2.77
2018-08-06T20:38:51.608Z,3.17
2018-08-06T20:41:19.880Z,3.17
2018-08-06T20:43:48.196Z,3.10
2018-08-06T20:46:17.250Z,2.90
2018-08-06T20:48:46.045Z,3.40
2018-08-06T20:51:14.191Z,3.27
2018-08-06T20:53:42.390Z,3.13
2018-08-06T20:56:10.601Z,3.30
2018-08-06T20:58:39.625Z,3.10
2018-08-06T21:01:08.676Z,3.20
2018-08-06T21:03:38.000Z,3.40
2018-08-06T21:06:06.451Z,3.30
2018-08-06T21:08:34.905Z,3.07
2018-08-06T21:11:03.567Z,3.60
2018-08-06T21:13:31.816Z,3.13
2018-08-06T21:16:00.047Z,3.23
2018-08-06T21:18:28.352Z,3.00
2018-08-06T21:20:56.595Z,3.27
2018-08-06T21:23:24.844Z,3.87
2018-08-06T21:25:53.834Z,3.33
2018-08-06T21:28:22.200Z,3.10
2018-08-06T21:30:50.481Z,3.20
2018-08-06T21:33:18.761Z,3.00
2018-08-06T21:35:47.005Z,3.43
2018-08-06T21:38:15.213Z,3.53
2018-08-06T21:40:43.491Z,3.30
2018-08-06T21:43:11.686Z,3.37
2018-08-06T21:45:39.934Z,3.43
2018-08-06T21:48:08.180Z,3.47
2018-08-06T21:50:36.437Z,3.50
2018-08-06T21:53:04.656Z,3.50
2018-08-06T21:55:32.893Z,3.50
2018-08-06T21:58:01.120Z,3.40
2018-08-06T22:00:33.962Z,3.90
2018-08-06T22:03:03.599Z,3.63
2018-08-06T22:05:31.969Z,3.83
2018-08-06T22:08:00.184Z,3.53
2018-08-06T22:10:28.422Z,3.90
2018-08-06T22:12:56.651Z,3.73
2018-08-06T22:15:24.902Z,4.10
2018-08-06T22:17:53.242Z,3.90
2018-08-06T22:20:21.514Z,4.07
2018-08-06T22:22:49.745Z,4.20
2018-08-06T22:25:18.025Z,4.13
2018-08-06T22:27:46.274Z,4.03
2018-08-06T22:30:14.503Z,4.30
2018-08-06T22:32:42.728Z,4.30
2018-08-06T22:35:12.210Z,3.80
2018-08-06T22:37:40.897Z,4.23
2018-08-06T22:40:10.905Z,4.30
2018-08-06T22:42:39.747Z,3.87
2018-08-06T22:45:09.248Z,3.80
2018-08-06T22:47:37.525Z,4.10
2018-08-06T22:50:08.205Z,3.90
2018-08-06T22:52:36.463Z,3.60
2018-08-06T22:55:05.276Z,3.90
2018-08-06T22:57:33.548Z,3.80
2018-08-06T23:00:02.418Z,3.93
2018-08-06T23:02:30.797Z,3.93
2018-08-06T23:04:59.016Z,4.00
2018-08-06T23:07:27.333Z,3.70
2018-08-06T23:09:55.551Z,4.03
2018-08-06T23:12:24.211Z,3.93
2018-08-06T23:14:52.448Z,4.03
2018-08-06T23:17:20.682Z,3.63
2018-08-06T23:19:48.920Z,4.00
2018-08-06T23:22:17.158Z,4.23
2018-08-06T23:24:45.378Z,4.10
2018-08-06T23:27:13.627Z,4.03
2018-08-06T23:29:41.880Z,3.83
2018-08-06T23:32:10.147Z,4.27
2018-08-06T23:34:38.410Z,4.40
2018-08-06T23:37:06.654Z,4.10
2018-08-06T23:39:34.905Z,4.77
2018-08-06T23:42:03.136Z,4.50
2018-08-06T23:44:31.428Z,4.03
2018-08-06T23:46:59.631Z,4.13
2018-08-06T23:49:27.963Z,4.10
2018-08-06T23:51:56.257Z,4.20
2018-08-06T23:54:24.478Z,3.90
2018-08-06T23:56:52.697Z,4.40
2018-08-06T23:59:20.897Z,4.43
